Jonathan, Idaho
Current Conditions -  °F | °C
As of 7:53 AM on Saturday 25 Oct 2014 (Local Time) from KONO Reporting Station
Moderate Fog Moderate Fog  
Wind Chill: 42°   Ceiling: 200
Heat Index: 42°   Visibility: 0.25mi
Dew Point: 41°   Wind: 3mph
Humidity: 96%   Direction: 200°SSW
Pressure: 29.87"   Gusts: NA
Location:  44.398°N, 116.943°W
Report Text: KONO 251353Z AUTO 20003KT 1/4SM FG VV002 06/05 A2987 RMK AO2 SLP121 T00560050
Loading
Personal Weather Stations






























Interactive Weather Map
Tropical Storm Tracking
New forecast layout! Learn more

10-Day Weather Forecast

Advertisements
Track Severe Weather on mobile